createdAt,value
2018-10-02T00:00:59.598Z,996.94
2018-10-02T00:01:59.764Z,996.98
2018-10-02T00:02:59.930Z,996.94
2018-10-02T00:04:00.105Z,996.92
2018-10-02T00:05:00.274Z,996.95
2018-10-02T00:06:00.442Z,996.90
2018-10-02T00:07:00.612Z,996.96
2018-10-02T00:08:00.782Z,996.98
2018-10-02T00:09:00.951Z,996.99
2018-10-02T00:10:01.124Z,996.97
2018-10-02T00:11:01.298Z,997.02
2018-10-02T00:12:01.477Z,996.99
2018-10-02T00:13:01.650Z,996.99
2018-10-02T00:14:01.822Z,996.99
2018-10-02T00:15:01.999Z,997.04
2018-10-02T00:16:02.162Z,997.02
2018-10-02T00:17:02.331Z,997.02
2018-10-02T00:18:02.508Z,996.98
2018-10-02T00:19:02.680Z,997.02
2018-10-02T00:20:02.850Z,996.98
2018-10-02T00:21:03.022Z,996.99
2018-10-02T00:22:03.194Z,997.00
2018-10-02T00:23:03.364Z,997.02
2018-10-02T00:24:03.542Z,996.98
2018-10-02T00:25:03.709Z,997.02
2018-10-02T00:26:03.876Z,996.99
2018-10-02T00:27:04.045Z,996.99
2018-10-02T00:28:04.214Z,996.97
2018-10-02T00:29:04.391Z,996.97
2018-10-02T00:30:04.569Z,996.98
2018-10-02T00:31:04.740Z,997.00
2018-10-02T00:32:04.996Z,997.00
2018-10-02T00:33:05.096Z,996.99
2018-10-02T00:34:05.264Z,996.99
2018-10-02T00:35:05.435Z,997.00
2018-10-02T00:36:05.604Z,997.01
2018-10-02T00:37:05.779Z,996.99
2018-10-02T00:38:05.948Z,996.97
2018-10-02T00:39:06.128Z,996.97
2018-10-02T00:40:06.295Z,996.96
2018-10-02T00:41:06.470Z,996.98
2018-10-02T00:42:06.641Z,997.01
2018-10-02T00:43:06.813Z,996.96
2018-10-02T00:44:06.980Z,996.99
2018-10-02T00:45:07.159Z,997.02
2018-10-02T00:46:07.332Z,997.01
2018-10-02T00:47:07.500Z,997.06
2018-10-02T00:48:07.671Z,997.05
2018-10-02T00:49:07.837Z,997.04
2018-10-02T00:50:08.011Z,997.04
2018-10-02T00:51:08.183Z,997.02
2018-10-02T00:52:08.356Z,996.99
2018-10-02T00:53:08.527Z,996.99
2018-10-02T00:54:08.703Z,997.00
2018-10-02T00:55:08.885Z,996.97
2018-10-02T00:56:09.052Z,996.98
2018-10-02T00:57:09.221Z,996.95
2018-10-02T00:58:09.397Z,997.02
2018-10-02T00:59:09.564Z,997.03
2018-10-02T01:00:09.735Z,997.03
2018-10-02T01:01:09.906Z,997.04
2018-10-02T01:02:10.078Z,997.01
2018-10-02T01:03:10.245Z,997.04
2018-10-02T01:04:10.428Z,996.97
2018-10-02T01:05:10.599Z,996.96
2018-10-02T01:06:10.779Z,997.01
2018-10-02T01:07:10.948Z,996.99
2018-10-02T01:08:11.115Z,996.99
2018-10-02T01:09:11.282Z,997.03
2018-10-02T01:10:11.452Z,997.01
2018-10-02T01:11:11.631Z,996.98
2018-10-02T01:12:11.804Z,997.01
2018-10-02T01:13:11.977Z,996.93
2018-10-02T01:14:12.150Z,996.90
2018-10-02T01:15:12.322Z,996.91
2018-10-02T01:16:12.497Z,996.90
2018-10-02T01:17:12.670Z,996.89
2018-10-02T01:18:12.840Z,996.88
2018-10-02T01:19:13.014Z,996.90
2018-10-02T01:20:13.203Z,996.92
2018-10-02T01:21:13.351Z,996.93
2018-10-02T01:22:13.524Z,996.92
2018-10-02T01:23:13.697Z,996.90
2018-10-02T01:24:13.872Z,996.90
2018-10-02T01:25:14.049Z,996.91
2018-10-02T01:26:14.218Z,996.92
2018-10-02T01:27:14.394Z,996.89
2018-10-02T01:28:14.563Z,996.91
2018-10-02T01:29:14.742Z,996.87
2018-10-02T01:30:14.923Z,996.84
2018-10-02T01:31:15.089Z,996.83
2018-10-02T01:32:15.258Z,996.90
2018-10-02T01:33:15.432Z,996.84
2018-10-02T01:34:15.605Z,996.82
2018-10-02T01:35:15.782Z,996.83
2018-10-02T01:36:15.951Z,996.84
2018-10-02T01:37:16.116Z,996.84
2018-10-02T01:38:16.287Z,996.83
2018-10-02T01:39:16.451Z,996.84
2018-10-02T01:40:16.630Z,996.80
2018-10-02T01:41:16.798Z,996.76
2018-10-02T01:42:16.974Z,996.74
2018-10-02T01:43:17.141Z,996.70
2018-10-02T01:44:17.309Z,996.72
2018-10-02T01:45:17.480Z,996.73
2018-10-02T01:46:17.657Z,996.77
2018-10-02T01:47:17.828Z,996.78
2018-10-02T01:48:18.001Z,996.81
2018-10-02T01:49:18.172Z,996.78
2018-10-02T01:50:18.348Z,996.79
2018-10-02T01:51:18.523Z,996.76
2018-10-02T01:52:18.692Z,996.75
2018-10-02T01:53:18.865Z,996.77
2018-10-02T01:54:19.039Z,996.74
2018-10-02T01:55:19.256Z,996.74
2018-10-02T01:56:19.391Z,996.76
2018-10-02T01:57:19.567Z,996.76
2018-10-02T01:58:19.736Z,996.78
2018-10-02T01:59:19.910Z,996.75
2018-10-02T02:00:20.088Z,996.73
2018-10-02T02:01:20.245Z,996.75
2018-10-02T02:02:20.411Z,996.77
2018-10-02T02:03:20.588Z,996.77
2018-10-02T02:04:20.770Z,996.80
2018-10-02T02:05:20.950Z,996.83
2018-10-02T02:06:21.131Z,996.81
2018-10-02T02:07:21.304Z,996.81
2018-10-02T02:08:21.477Z,996.79
2018-10-02T02:09:21.657Z,996.83
2018-10-02T02:10:21.832Z,996.83
2018-10-02T02:11:22.014Z,996.82
2018-10-02T02:12:22.183Z,996.84
2018-10-02T02:13:22.351Z,996.86
2018-10-02T02:14:22.517Z,996.85
2018-10-02T02:15:22.686Z,996.84
2018-10-02T02:16:22.853Z,996.87
2018-10-02T02:17:23.031Z,996.83
2018-10-02T02:18:23.212Z,996.85
2018-10-02T02:19:23.387Z,996.82
2018-10-02T02:20:23.556Z,996.85
2018-10-02T02:21:23.732Z,996.86
2018-10-02T02:22:23.897Z,996.85
2018-10-02T02:23:24.070Z,996.91
2018-10-02T02:24:24.243Z,996.92
2018-10-02T02:25:24.415Z,996.94
2018-10-02T02:26:24.594Z,996.98
2018-10-02T02:27:24.769Z,996.97
2018-10-02T02:28:24.942Z,996.95
2018-10-02T02:29:25.112Z,996.97
2018-10-02T02:30:25.280Z,996.93
2018-10-02T02:31:25.462Z,996.92
2018-10-02T02:32:25.628Z,996.92
2018-10-02T02:33:25.802Z,996.92
2018-10-02T02:34:25.969Z,996.94
2018-10-02T02:35:26.147Z,996.93
2018-10-02T02:36:26.318Z,996.91
2018-10-02T02:37:26.485Z,996.89
2018-10-02T02:38:26.661Z,996.87
2018-10-02T02:39:26.834Z,996.92
2018-10-02T02:40:27.016Z,996.94
2018-10-02T02:41:27.184Z,996.91
2018-10-02T02:42:27.352Z,996.90
2018-10-02T02:43:27.529Z,996.87
2018-10-02T02:44:27.691Z,996.91
2018-10-02T02:45:27.859Z,996.90
2018-10-02T02:46:28.022Z,996.88
2018-10-02T02:47:28.199Z,996.89
2018-10-02T02:48:28.382Z,996.84
2018-10-02T02:49:28.550Z,996.83
2018-10-02T02:50:28.717Z,996.84
2018-10-02T02:51:28.884Z,996.89
2018-10-02T02:52:29.100Z,996.88
2018-10-02T02:53:29.241Z,996.89
2018-10-02T02:54:29.404Z,996.90
2018-10-02T02:55:29.573Z,996.91
2018-10-02T02:56:29.751Z,996.90
2018-10-02T02:57:29.924Z,996.91
2018-10-02T02:58:30.094Z,996.98
2018-10-02T02:59:30.264Z,996.96
2018-10-02T03:00:30.446Z,996.98
2018-10-02T03:01:30.606Z,996.99
2018-10-02T03:02:30.776Z,997.01
2018-10-02T03:03:30.943Z,997.07
2018-10-02T03:04:31.120Z,997.00
2018-10-02T03:05:31.289Z,996.97
2018-10-02T03:06:31.467Z,997.00
2018-10-02T03:07:31.641Z,996.98
2018-10-02T03:08:31.813Z,996.97
2018-10-02T03:09:31.984Z,996.95
2018-10-02T03:10:32.168Z,996.88
2018-10-02T03:11:32.344Z,996.81
2018-10-02T03:12:32.512Z,996.89
2018-10-02T03:13:32.683Z,996.88
2018-10-02T03:14:32.854Z,996.87
2018-10-02T03:15:33.025Z,996.84
2018-10-02T03:16:33.195Z,996.79
2018-10-02T03:17:33.365Z,996.80
2018-10-02T03:18:33.542Z,996.77
2018-10-02T03:19:33.715Z,996.73
2018-10-02T03:20:33.889Z,996.73
2018-10-02T03:21:34.144Z,996.73
2018-10-02T03:22:34.287Z,996.76
2018-10-02T03:23:34.452Z,996.75
2018-10-02T03:24:34.630Z,996.73
2018-10-02T03:25:34.797Z,996.73
2018-10-02T03:26:34.967Z,996.71
2018-10-02T03:27:35.133Z,996.74
2018-10-02T03:28:35.309Z,996.74
2018-10-02T03:29:35.486Z,996.78
2018-10-02T03:30:35.670Z,996.88
2018-10-02T03:31:35.905Z,996.86
2018-10-02T03:32:36.028Z,996.92
2018-10-02T03:33:36.203Z,996.88
2018-10-02T03:34:36.376Z,996.87
2018-10-02T03:35:36.578Z,996.86
2018-10-02T03:36:36.754Z,996.80
2018-10-02T03:37:36.965Z,996.73
2018-10-02T03:38:37.106Z,996.76
2018-10-02T03:39:37.297Z,996.79
2018-10-02T03:40:37.470Z,996.77
2018-10-02T03:41:37.636Z,996.70
2018-10-02T03:42:37.808Z,996.65
2018-10-02T03:43:37.985Z,996.61
2018-10-02T03:44:38.148Z,996.63
2018-10-02T03:45:38.331Z,996.59
2018-10-02T03:46:38.499Z,996.59
2018-10-02T03:47:38.679Z,996.55
2018-10-02T03:48:38.915Z,996.55
2018-10-02T03:49:39.032Z,996.55
2018-10-02T03:50:39.211Z,996.57
2018-10-02T03:51:39.392Z,996.56
2018-10-02T03:52:39.571Z,996.54
2018-10-02T03:53:39.750Z,996.53
2018-10-02T03:54:39.917Z,996.54
2018-10-02T03:55:40.096Z,996.50
2018-10-02T03:56:40.271Z,996.45
2018-10-02T03:57:40.458Z,996.45
2018-10-02T03:58:40.624Z,996.43
2018-10-02T03:59:40.794Z,996.39
2018-10-02T04:00:40.969Z,996.39
2018-10-02T04:01:41.149Z,996.41
2018-10-02T04:02:41.328Z,996.44
2018-10-02T04:03:41.585Z,996.44
2018-10-02T04:04:41.679Z,996.48
2018-10-02T04:05:41.847Z,996.48
2018-10-02T04:06:42.028Z,996.50
2018-10-02T04:07:42.200Z,996.51
2018-10-02T04:08:42.374Z,996.46
2018-10-02T04:09:42.553Z,996.43
2018-10-02T04:10:42.721Z,996.49
2018-10-02T04:11:42.900Z,996.48
2018-10-02T04:12:43.069Z,996.54
2018-10-02T04:13:43.250Z,996.58
2018-10-02T04:14:43.422Z,996.54
2018-10-02T04:15:43.597Z,996.55
2018-10-02T04:16:43.772Z,996.51
2018-10-02T04:17:43.948Z,996.47
2018-10-02T04:18:44.121Z,996.43
2018-10-02T04:19:44.288Z,996.44
2018-10-02T04:20:44.496Z,996.45
2018-10-02T04:21:44.636Z,996.50
2018-10-02T04:22:44.805Z,996.43
2018-10-02T04:23:44.976Z,996.37
2018-10-02T04:24:45.162Z,996.37
2018-10-02T04:25:45.317Z,996.38
2018-10-02T04:26:45.489Z,996.38
2018-10-02T04:27:45.667Z,996.43
2018-10-02T04:28:45.839Z,996.47
2018-10-02T04:29:46.015Z,996.46
2018-10-02T04:30:46.179Z,996.42
2018-10-02T04:31:46.359Z,996.42
2018-10-02T04:32:46.525Z,996.47
2018-10-02T04:33:46.771Z,996.49
2018-10-02T04:34:46.870Z,996.42
2018-10-02T04:35:47.045Z,996.44
2018-10-02T04:36:47.210Z,996.46
2018-10-02T04:37:47.392Z,996.45
2018-10-02T04:38:47.563Z,996.44
2018-10-02T04:39:47.730Z,996.40
2018-10-02T04:40:47.901Z,996.38
2018-10-02T04:41:48.069Z,996.41
2018-10-02T04:42:48.244Z,996.35
2018-10-02T04:43:48.411Z,996.36
2018-10-02T04:44:48.588Z,996.40
2018-10-02T04:45:48.761Z,996.36
2018-10-02T04:46:48.983Z,996.36
2018-10-02T04:47:49.104Z,996.33
2018-10-02T04:48:49.273Z,996.33
2018-10-02T04:49:49.466Z,996.37
2018-10-02T04:50:49.627Z,996.37
2018-10-02T04:51:49.806Z,996.34
2018-10-02T04:52:49.984Z,996.38
2018-10-02T04:53:50.164Z,996.34
2018-10-02T04:54:50.383Z,996.32
2018-10-02T04:55:50.578Z,996.27
2018-10-02T04:56:50.699Z,996.26
2018-10-02T04:57:51.278Z,996.30
2018-10-02T04:58:51.065Z,996.31
2018-10-02T04:59:51.267Z,996.32
2018-10-02T05:00:51.433Z,996.34
2018-10-02T05:01:51.644Z,996.37
2018-10-02T05:02:51.851Z,996.38
2018-10-02T05:03:52.032Z,996.36
2018-10-02T05:04:52.217Z,996.35
2018-10-02T05:05:52.398Z,996.38
2018-10-02T05:06:52.623Z,996.43
2018-10-02T05:07:53.217Z,996.44
2018-10-02T05:08:52.895Z,996.46
2018-10-02T05:09:53.083Z,996.48
2018-10-02T05:10:53.252Z,996.46
2018-10-02T05:11:53.429Z,996.48
2018-10-02T05:12:53.599Z,996.46
2018-10-02T05:13:53.778Z,996.42
2018-10-02T05:14:53.953Z,996.43
2018-10-02T05:15:54.129Z,996.43
2018-10-02T05:16:54.415Z,996.46
2018-10-02T05:17:54.488Z,996.50
2018-10-02T05:18:54.655Z,996.48
2018-10-02T05:19:54.837Z,996.50
2018-10-02T05:20:55.015Z,996.49
2018-10-02T05:21:55.188Z,996.50
2018-10-02T05:22:55.385Z,996.49
2018-10-02T05:23:55.574Z,996.44
2018-10-02T05:24:55.729Z,996.50
2018-10-02T05:25:55.903Z,996.53
2018-10-02T05:26:56.086Z,996.51
2018-10-02T05:27:56.259Z,996.53
2018-10-02T05:28:56.434Z,996.49
2018-10-02T05:29:56.613Z,996.40
2018-10-02T05:30:56.788Z,996.33
2018-10-02T05:31:59.011Z,996.34
2018-10-02T05:32:57.192Z,996.31
2018-10-02T05:33:57.366Z,996.31
2018-10-02T05:34:57.599Z,996.34
2018-10-02T05:35:58.563Z,996.36
2018-10-02T05:36:59.250Z,996.33
2018-10-02T05:38:00.361Z,996.30
2018-10-02T05:39:00.485Z,996.30
2018-10-02T05:40:00.319Z,996.29
2018-10-02T05:41:00.661Z,996.26
2018-10-02T05:41:58.789Z,996.28
2018-10-02T05:43:00.905Z,996.25
2018-10-02T05:44:00.552Z,996.25
2018-10-02T05:45:00.341Z,996.19
2018-10-02T05:45:59.843Z,996.20
2018-10-02T05:47:00.326Z,996.21
2018-10-02T05:47:59.671Z,996.17
2018-10-02T05:48:59.845Z,996.20
2018-10-02T05:50:00.014Z,996.16
2018-10-02T05:51:00.189Z,996.16
2018-10-02T05:52:00.358Z,996.14
2018-10-02T05:53:00.531Z,996.13
2018-10-02T05:54:02.247Z,996.10
2018-10-02T05:55:00.975Z,996.13
2018-10-02T05:56:02.134Z,996.12
2018-10-02T05:57:01.210Z,996.08
2018-10-02T05:58:02.410Z,996.14
2018-10-02T05:59:01.933Z,996.13
2018-10-02T06:00:02.977Z,996.17
2018-10-02T06:01:03.600Z,996.18
2018-10-02T06:02:02.092Z,996.17
2018-10-02T06:03:03.853Z,996.17
2018-10-02T06:04:03.603Z,996.18
2018-10-02T06:05:04.211Z,996.16
2018-10-02T06:06:02.545Z,996.18
2018-10-02T06:07:03.406Z,996.13
2018-10-02T06:08:03.246Z,996.07
2018-10-02T06:09:03.846Z,996.03
2018-10-02T06:10:04.848Z,996.11
2018-10-02T06:11:04.979Z,996.11
2018-10-02T06:12:04.558Z,996.10
2018-10-02T06:13:05.988Z,996.10
2018-10-02T06:14:04.437Z,996.14
2018-10-02T06:15:04.206Z,996.16
2018-10-02T06:16:05.906Z,996.17
2018-10-02T06:17:07.944Z,996.17
2018-10-02T06:18:05.314Z,996.16
2018-10-02T06:19:04.575Z,996.19
2018-10-02T06:20:04.730Z,996.28
2018-10-02T06:21:04.911Z,996.26
2018-10-02T06:22:05.093Z,996.26
2018-10-02T06:23:05.265Z,996.30
2018-10-02T06:24:05.443Z,996.30
2018-10-02T06:25:05.610Z,996.30
2018-10-02T06:26:05.785Z,996.31
2018-10-02T06:27:05.960Z,996.31
2018-10-02T06:28:06.141Z,996.37
2018-10-02T06:29:06.325Z,996.35
2018-10-02T06:30:06.500Z,996.33
2018-10-02T06:31:06.681Z,996.33
2018-10-02T06:32:06.856Z,996.32
2018-10-02T06:33:07.027Z,996.31
2018-10-02T06:34:07.204Z,996.32
2018-10-02T06:35:09.195Z,996.29
2018-10-02T06:36:07.561Z,996.35
2018-10-02T06:37:07.732Z,996.38
2018-10-02T06:38:07.973Z,996.41
2018-10-02T06:39:08.235Z,996.44
2018-10-02T06:40:08.305Z,996.44
2018-10-02T06:41:08.479Z,996.45
2018-10-02T06:42:08.671Z,996.47
2018-10-02T06:43:08.834Z,996.48
2018-10-02T06:44:09.004Z,996.46
2018-10-02T06:45:09.348Z,996.48
2018-10-02T06:46:09.347Z,996.48
2018-10-02T06:47:09.529Z,996.53
2018-10-02T06:48:09.703Z,996.52
2018-10-02T06:49:09.874Z,996.58
2018-10-02T06:50:10.042Z,996.57
2018-10-02T06:51:10.335Z,996.56
2018-10-02T06:52:10.703Z,996.60
2018-10-02T06:53:10.569Z,996.57
2018-10-02T06:54:10.742Z,996.62
2018-10-02T06:55:10.945Z,996.62
2018-10-02T06:56:11.142Z,996.61
2018-10-02T06:57:11.300Z,996.58
2018-10-02T06:58:11.472Z,996.62
2018-10-02T06:59:11.652Z,996.62
2018-10-02T07:00:13.222Z,996.58
2018-10-02T07:01:12.703Z,996.58
2018-10-02T07:02:12.977Z,996.56
2018-10-02T07:03:13.859Z,996.54
2018-10-02T07:04:15.627Z,996.63
2018-10-02T07:05:15.909Z,996.64
2018-10-02T07:06:14.111Z,996.64
2018-10-02T07:07:14.036Z,996.64
2018-10-02T07:08:14.985Z,996.67
2018-10-02T07:09:14.899Z,996.64
2018-10-02T07:10:14.383Z,996.62
2018-10-02T07:11:15.428Z,996.64
2018-10-02T07:12:15.193Z,996.60
2018-10-02T07:13:15.172Z,996.65
2018-10-02T07:14:15.146Z,996.66
2018-10-02T07:15:14.808Z,996.66
2018-10-02T07:16:15.625Z,996.70
2018-10-02T07:17:16.589Z,996.68
2018-10-02T07:18:15.421Z,996.70
2018-10-02T07:19:15.682Z,996.67
2018-10-02T07:20:16.337Z,996.66
2018-10-02T07:21:16.215Z,996.68
2018-10-02T07:22:16.555Z,996.69
2018-10-02T07:23:17.454Z,996.68
2018-10-02T07:24:16.377Z,996.71
2018-10-02T07:25:17.035Z,996.64
2018-10-02T07:26:16.656Z,996.64
2018-10-02T07:27:17.274Z,996.68
2018-10-02T07:28:17.265Z,996.67
2018-10-02T07:29:17.468Z,996.67
2018-10-02T07:30:16.983Z,996.67
2018-10-02T07:31:18.633Z,996.70
2018-10-02T07:32:18.080Z,996.68
2018-10-02T07:33:18.606Z,996.70
2018-10-02T07:34:18.436Z,996.74
2018-10-02T07:35:18.610Z,996.72
2018-10-02T07:36:19.717Z,996.77
2018-10-02T07:37:19.130Z,996.76
2018-10-02T07:38:19.050Z,996.78
2018-10-02T07:39:17.990Z,996.77
2018-10-02T07:40:18.161Z,996.83
2018-10-02T07:41:18.345Z,996.79
2018-10-02T07:42:19.988Z,996.74
2018-10-02T07:43:19.955Z,996.72
2018-10-02T07:44:20.548Z,996.69
2018-10-02T07:45:20.075Z,996.69
2018-10-02T07:46:20.031Z,996.72
2018-10-02T07:47:19.778Z,996.73
2018-10-02T07:48:20.343Z,996.70
2018-10-02T07:49:19.940Z,996.71
2018-10-02T07:50:20.018Z,996.76
2018-10-02T07:51:20.155Z,996.75
2018-10-02T07:52:20.229Z,996.73
2018-10-02T07:53:20.742Z,996.75
2018-10-02T07:54:20.546Z,996.74
2018-10-02T07:55:20.918Z,996.72
2018-10-02T07:56:21.471Z,996.77
2018-10-02T07:57:21.095Z,996.74
2018-10-02T07:58:22.225Z,996.72
2018-10-02T07:59:22.081Z,996.71
2018-10-02T08:00:21.743Z,996.72
2018-10-02T08:01:22.329Z,996.69
2018-10-02T08:02:22.871Z,996.70
2018-10-02T08:03:22.115Z,996.70
2018-10-02T08:04:23.272Z,996.67
2018-10-02T08:05:22.501Z,996.65
2018-10-02T08:06:22.678Z,996.64
2018-10-02T08:07:23.002Z,996.63
2018-10-02T08:08:24.092Z,996.60
2018-10-02T08:09:24.028Z,996.57
2018-10-02T08:10:24.619Z,996.56
2018-10-02T08:11:24.538Z,996.59
2018-10-02T08:12:24.383Z,996.57
2018-10-02T08:13:24.590Z,996.59
2018-10-02T08:14:25.547Z,996.59
2018-10-02T08:15:25.695Z,996.58
2018-10-02T08:16:24.793Z,996.53
2018-10-02T08:17:25.770Z,996.56
2018-10-02T08:18:24.529Z,996.54
2018-10-02T08:19:25.067Z,996.50
2018-10-02T08:20:24.863Z,996.51
2018-10-02T08:21:25.038Z,996.48
2018-10-02T08:22:25.940Z,996.53
2018-10-02T08:23:26.119Z,996.49
2018-10-02T08:24:27.002Z,996.48
2018-10-02T08:25:25.713Z,996.50
2018-10-02T08:26:26.438Z,996.51
2018-10-02T08:27:27.143Z,996.52
2018-10-02T08:28:27.346Z,996.49
2018-10-02T08:29:27.722Z,996.51
2018-10-02T08:30:27.580Z,996.43
2018-10-02T08:31:28.248Z,996.42
2018-10-02T08:32:27.787Z,996.36
2018-10-02T08:33:28.694Z,996.33
2018-10-02T08:34:28.110Z,996.33
2018-10-02T08:35:27.949Z,996.28
2018-10-02T08:36:27.545Z,996.30
2018-10-02T08:37:28.476Z,996.29
2018-10-02T08:38:28.267Z,996.27
2018-10-02T08:39:28.593Z,996.27
2018-10-02T08:40:28.216Z,996.24
2018-10-02T08:41:28.403Z,996.26
2018-10-02T08:42:28.573Z,996.24
2018-10-02T08:43:28.902Z,996.24
2018-10-02T08:44:28.968Z,996.23
2018-10-02T08:45:29.078Z,996.22
2018-10-02T08:46:29.261Z,996.20
2018-10-02T08:47:29.458Z,996.22
2018-10-02T08:48:29.592Z,996.19
2018-10-02T08:49:29.765Z,996.20
2018-10-02T08:50:29.995Z,996.24
2018-10-02T08:51:30.122Z,996.23
2018-10-02T08:52:30.299Z,996.19
2018-10-02T08:53:30.492Z,996.22
2018-10-02T08:54:31.134Z,996.22
2018-10-02T08:55:30.796Z,996.21
2018-10-02T08:56:30.971Z,996.24
2018-10-02T08:57:31.157Z,996.21
2018-10-02T08:58:31.390Z,996.17
2018-10-02T08:59:32.575Z,996.16
2018-10-02T09:00:32.546Z,996.19
2018-10-02T09:01:32.903Z,996.21
2018-10-02T09:02:31.864Z,996.18
2018-10-02T09:03:32.057Z,996.16
2018-10-02T09:04:32.232Z,996.14
2018-10-02T09:05:32.514Z,996.13
2018-10-02T09:06:32.862Z,996.18
2018-10-02T09:07:34.395Z,996.15
2018-10-02T09:08:32.917Z,996.14
2018-10-02T09:09:33.119Z,996.17
2018-10-02T09:10:33.277Z,996.16
2018-10-02T09:11:33.455Z,996.15
2018-10-02T09:12:33.654Z,996.19
2018-10-02T09:13:33.811Z,996.20
2018-10-02T09:14:33.978Z,996.24
2018-10-02T09:15:34.256Z,996.20
2018-10-02T09:16:34.392Z,996.21
2018-10-02T09:17:34.529Z,996.19
2018-10-02T09:18:34.761Z,996.18
2018-10-02T09:19:35.651Z,996.14
2018-10-02T09:20:35.071Z,996.08
2018-10-02T09:21:35.298Z,996.01
2018-10-02T09:22:35.414Z,995.97
2018-10-02T09:23:35.587Z,995.99
2018-10-02T09:24:35.800Z,995.89
2018-10-02T09:25:35.933Z,995.92
2018-10-02T09:26:36.125Z,995.92
2018-10-02T09:27:36.391Z,995.81
2018-10-02T09:28:36.597Z,995.80
2018-10-02T09:29:36.685Z,995.85
2018-10-02T09:30:36.881Z,995.81
2018-10-02T09:31:37.033Z,995.83
2018-10-02T09:32:37.205Z,995.81
2018-10-02T09:33:37.439Z,995.81
2018-10-02T09:34:37.558Z,995.82
2018-10-02T09:35:37.733Z,995.77
2018-10-02T09:36:38.599Z,995.79
2018-10-02T09:37:38.031Z,995.78
2018-10-02T09:38:38.206Z,995.76
2018-10-02T09:39:38.702Z,995.75
2018-10-02T09:40:38.595Z,995.72
2018-10-02T09:41:38.767Z,995.69
2018-10-02T09:42:39.021Z,995.68
2018-10-02T09:43:39.291Z,995.60
2018-10-02T09:44:39.315Z,995.57
2018-10-02T09:45:39.582Z,995.53
2018-10-02T09:46:39.678Z,995.52
2018-10-02T09:47:41.383Z,995.56
2018-10-02T09:48:41.491Z,995.51
2018-10-02T09:49:40.193Z,995.46
2018-10-02T09:50:42.922Z,995.41
2018-10-02T09:51:42.954Z,995.41
2018-10-02T09:52:42.215Z,995.44
2018-10-02T09:53:40.827Z,995.41
2018-10-02T09:54:41.091Z,995.38
2018-10-02T09:55:41.235Z,995.39
2018-10-02T09:56:41.456Z,995.42
2018-10-02T09:57:41.818Z,995.42
2018-10-02T09:58:42.115Z,995.43
2018-10-02T09:59:42.297Z,995.37
2018-10-02T10:00:42.464Z,995.41
2018-10-02T10:01:42.572Z,995.48
2018-10-02T10:02:44.270Z,995.45
2018-10-02T10:03:47.540Z,995.42
2018-10-02T10:04:42.748Z,995.42
2018-10-02T10:05:43.185Z,995.46
2018-10-02T10:06:43.428Z,995.40
2018-10-02T10:07:43.287Z,995.36
2018-10-02T10:08:43.701Z,995.37
2018-10-02T10:09:43.590Z,995.39
2018-10-02T10:10:43.824Z,995.39
2018-10-02T10:11:44.039Z,995.36
2018-10-02T10:12:44.381Z,995.42
2018-10-02T10:13:44.673Z,995.32
2018-10-02T10:14:44.709Z,995.38
2018-10-02T10:15:44.857Z,995.32
2018-10-02T10:16:44.940Z,995.29
2018-10-02T10:17:45.274Z,995.25
2018-10-02T10:18:46.316Z,995.21
2018-10-02T10:19:46.476Z,995.17
2018-10-02T10:20:46.762Z,995.15
2018-10-02T10:21:46.793Z,995.11
2018-10-02T10:22:46.843Z,995.04
2018-10-02T10:23:47.014Z,995.07
2018-10-02T10:24:46.871Z,995.12
2018-10-02T10:25:47.598Z,995.06
2018-10-02T10:26:48.404Z,995.12
2018-10-02T10:27:48.127Z,995.13
2018-10-02T10:28:47.608Z,995.12
2018-10-02T10:29:47.637Z,995.13
2018-10-02T10:30:47.804Z,995.04
2018-10-02T10:31:48.453Z,994.98
2018-10-02T10:32:48.551Z,995.00
2018-10-02T10:33:47.728Z,994.95
2018-10-02T10:34:48.310Z,995.04
2018-10-02T10:35:48.650Z,995.00
2018-10-02T10:36:48.719Z,995.03
2018-10-02T10:37:48.833Z,995.10
2018-10-02T10:38:49.132Z,995.09
2018-10-02T10:39:49.512Z,995.06
2018-10-02T10:40:49.590Z,995.06
2018-10-02T10:41:49.988Z,995.04
2018-10-02T10:42:49.239Z,995.04
2018-10-02T10:43:50.028Z,995.02
2018-10-02T10:44:50.319Z,995.04
2018-10-02T10:45:49.932Z,994.99
2018-10-02T10:46:50.125Z,995.03
2018-10-02T10:47:51.074Z,995.06
2018-10-02T10:48:50.769Z,995.07
2018-10-02T10:49:51.481Z,995.05
2018-10-02T10:50:51.479Z,995.02
2018-10-02T10:51:50.114Z,995.00
2018-10-02T10:52:51.317Z,995.01
2018-10-02T10:53:51.220Z,994.98
2018-10-02T10:54:50.717Z,994.98
2018-10-02T10:55:51.198Z,994.93
2018-10-02T10:56:52.335Z,994.91
2018-10-02T10:57:51.180Z,994.90
2018-10-02T10:58:51.641Z,994.85
2018-10-02T10:59:51.850Z,994.84
2018-10-02T11:00:54.302Z,994.80
2018-10-02T11:01:52.130Z,994.79
2018-10-02T11:02:53.146Z,994.81
2018-10-02T11:03:53.661Z,994.82
2018-10-02T11:04:53.105Z,994.75
2018-10-02T11:05:53.160Z,994.81
2018-10-02T11:06:54.266Z,994.81
2018-10-02T11:07:53.266Z,994.84
2018-10-02T11:08:54.212Z,994.84
2018-10-02T11:09:54.472Z,994.79
2018-10-02T11:10:53.638Z,994.79
2018-10-02T11:11:54.846Z,994.68
2018-10-02T11:12:55.113Z,994.75
2018-10-02T11:13:54.072Z,994.74
2018-10-02T11:14:55.158Z,994.81
2018-10-02T11:15:55.688Z,994.77
2018-10-02T11:16:55.229Z,994.69
2018-10-02T11:17:55.311Z,994.68
2018-10-02T11:18:55.961Z,994.65
2018-10-02T11:19:55.046Z,994.70
2018-10-02T11:20:56.007Z,994.61
2018-10-02T11:21:56.515Z,994.66
2018-10-02T11:22:56.488Z,994.71
2018-10-02T11:23:56.100Z,994.67
2018-10-02T11:24:55.802Z,994.61
2018-10-02T11:25:56.211Z,994.63
2018-10-02T11:26:56.009Z,994.65
2018-10-02T11:27:56.303Z,994.60
2018-10-02T11:28:56.612Z,994.52
2018-10-02T11:29:56.323Z,994.54
2018-10-02T11:30:57.815Z,994.54
2018-10-02T11:31:56.909Z,994.47
2018-10-02T11:32:57.975Z,994.42
2018-10-02T11:33:58.217Z,994.37
2018-10-02T11:34:57.821Z,994.23
2018-10-02T11:35:57.774Z,994.28
2018-10-02T11:36:58.152Z,994.27
2018-10-02T11:37:58.248Z,994.32
2018-10-02T11:38:58.490Z,994.37
2018-10-02T11:39:58.775Z,994.42
2018-10-02T11:40:58.789Z,994.43
2018-10-02T11:41:58.839Z,994.44
2018-10-02T11:42:58.269Z,994.36
2018-10-02T11:43:59.339Z,994.38
2018-10-02T11:44:59.532Z,994.42
2018-10-02T11:45:59.392Z,994.37
2018-10-02T11:46:59.571Z,994.35
2018-10-02T11:48:00.077Z,994.35
2018-10-02T11:48:59.198Z,994.27
2018-10-02T11:49:59.463Z,994.33
2018-10-02T11:50:59.570Z,994.31
2018-10-02T11:51:59.741Z,994.37
2018-10-02T11:52:59.930Z,994.25
2018-10-02T11:54:00.109Z,994.20
2018-10-02T11:55:00.713Z,994.20
2018-10-02T11:56:00.406Z,994.18
2018-10-02T11:57:00.591Z,994.20
2018-10-02T11:58:00.753Z,994.13
2018-10-02T11:59:00.922Z,994.15
2018-10-02T12:00:01.097Z,994.18
2018-10-02T12:01:01.418Z,994.25
2018-10-02T12:02:01.445Z,994.26
2018-10-02T12:03:01.616Z,994.26
2018-10-02T12:04:01.803Z,994.13
2018-10-02T12:05:01.981Z,994.14
2018-10-02T12:06:02.160Z,994.11
2018-10-02T12:07:02.338Z,994.15
2018-10-02T12:08:02.514Z,994.15
2018-10-02T12:09:02.811Z,994.16
2018-10-02T12:10:02.871Z,994.14
2018-10-02T12:11:03.044Z,994.13
2018-10-02T12:12:03.221Z,994.05
2018-10-02T12:13:05.604Z,994.12
2018-10-02T12:14:05.060Z,994.06
2018-10-02T12:15:04.662Z,994.07
2018-10-02T12:16:04.903Z,994.10
2018-10-02T12:17:04.045Z,994.03
2018-10-02T12:18:04.248Z,994.06
2018-10-02T12:19:05.156Z,994.02
2018-10-02T12:20:04.541Z,993.99
2018-10-02T12:21:04.954Z,993.93
2018-10-02T12:22:04.898Z,993.90
2018-10-02T12:23:05.085Z,993.92
2018-10-02T12:24:05.282Z,993.84
2018-10-02T12:25:05.453Z,993.79
2018-10-02T12:26:05.797Z,993.80
2018-10-02T12:27:05.803Z,993.81
2018-10-02T12:28:06.272Z,993.78
2018-10-02T12:29:06.196Z,993.74
2018-10-02T12:30:06.361Z,993.73
2018-10-02T12:31:06.570Z,993.74